Flight Track Log - Related Links

Times and Time Zones

All times are in EDT time to prevent confusion due to time zone crossing. See the CTL16 flight status page for this flight to view local times or setup timezone preferences in your user account.

Time Position Orientation Groundspeed Altitude Reporting Facility
EDT Latitude Longitude Course Direction KTS MPH feet Rate Location/Type
Fri 08:10:38 PM 39.3167 -84.3500 38° Northeast 161 185 2,700  Level Cincinnati TRACON
Fri 08:11:26 PM 39.3500 -84.3167 29° Northeast 165 190 3,300 579 Climbing Cincinnati TRACON
Fri 08:12:32 PM 39.3858 -84.2906 36° Northeast 171 197 3,800 429 Climbing Indianapolis Center
Fri 08:13:32 PM 39.4256 -84.2533 43° Northeast 173 199 4,200 446 Climbing Indianapolis Center
Fri 08:14:33 PM 39.4614 -84.2106 38° Northeast 180 207 4,700 545 Climbing Indianapolis Center
Fri 08:15:33 PM 39.5011 -84.1706 39° Northeast 177 204 5,300 496 Climbing Indianapolis Center
Fri 08:16:34 PM 39.5389 -84.1306 34° Northeast 177 204 5,700 496 Climbing Indianapolis Center
Fri 08:17:34 PM 39.5786 -84.0958 35° Northeast 177 204 6,300 545 Climbing Indianapolis Center
Fri 08:18:35 PM 39.6225 -84.0558 38° Northeast 179 206 6,800 269 Climbing Indianapolis Center
Fri 08:19:48 PM 39.6708 -84.0075 33° Northeast 189 217 6,900 90 Climbing Indianapolis Center
Fri 08:20:48 PM 39.7147 -83.9700 39° Northeast 188 216 7,000 47 Climbing Indianapolis Center
Fri 08:21:55 PM 39.7628 -83.9189 43° Northeast 195 224 7,000 49 Level Indianapolis Center
Fri 08:22:50 PM 39.8003 -83.8733 42° Northeast 197 227 7,100 52 Climbing Indianapolis Center
Fri 08:23:50 PM 39.8400 -83.8275 40° Northeast 199 229 7,100 -50 Level Indianapolis Center
Fri 08:24:51 PM 39.8819 -83.7817 49° Northeast 194 223 7,000 -50 Descending Indianapolis Center
Fri 08:25:51 PM 39.9175 -83.7275 52° Northeast 193 222 7,000  Level Indianapolis Center
Fri 08:26:52 PM 39.9508 -83.6708 35° Northeast 196 226 7,000  Level Indianapolis Center
Fri 08:27:53 PM 39.9947 -83.6303 44° Northeast 194 223 7,000  Level Indianapolis Center
Fri 08:28:53 PM 40.0364 -83.5786 42° Northeast 196 226 7,000  Level Indianapolis Center
Fri 08:29:54 PM 40.0761 -83.5325 36° Northeast 195 224 7,000 49 Level Indianapolis Center
Fri 08:30:55 PM 40.1219 -83.4892 48° Northeast 194 223 7,100  Climbing Indianapolis Center
Fri 08:32:08 PM 40.1656 -83.4267 41° Northeast 195 224 7,000 -47 Descending Indianapolis Center
Fri 08:33:02 PM 40.2008 -83.3858 39° Northeast 193 222 7,000  Level Indianapolis Center
Fri 08:34:02 PM 40.2425 -83.3422 40° Northeast 191 220 7,000  Level Indianapolis Center
Fri 08:35:03 PM 40.2819 -83.2986 49° Northeast 193 222 7,000 18 Level Indianapolis Center
Fri 08:45:02 PM 40.6278 -82.7664 48° Northeast 195 224 7,200 17 Climbing Cleveland Center
Fri 08:46:39 PM 40.6836 -82.6833 51° Northeast 190 219 7,200 -38 Level Cleveland Center
Fri 08:47:40 PM 40.7181 -82.6267 54° Northeast 190 219 7,100 -207 Descending Cleveland Center
Fri 08:48:35 PM 40.7458 -82.5756 41° Northeast 192 221 6,800 -470 Descending Cleveland Center
Fri 08:49:35 PM 40.7906 -82.5247 46° Northeast 209 241 6,200 -793 Descending Cleveland Center
Fri 08:50:36 PM 40.8311 -82.4683 55° Northeast 213 245 5,200 -590 Descending Cleveland Center
Fri 08:51:37 PM 40.8636 -82.4061 59° Northeast 201 231 5,000 -52 Descending Cleveland Center
Fri 08:52:31 PM 40.8872 -82.3547 56° Northeast 182 209 5,100  Climbing Cleveland Center
Fri 08:53:32 PM 40.9153 -82.3003 53° Northeast 180 207 5,000 -47 Descending Cleveland Center
Fri 08:54:39 PM 40.9494 -82.2408 52° Northeast 175 201 5,000 99 Level Cleveland Center
Fri 08:55:33 PM 40.9750 -82.1975 53° Northeast 179 206 5,200 -261 Climbing Cleveland Center
Fri 08:56:34 PM 41.0092 -82.1378 56° Northeast 192 221 4,500 -545 Descending Cleveland Center
Fri 08:57:34 PM 41.0392 -82.0781 63° Northeast 197 227 4,100 -198 Descending Cleveland Center
Fri 08:58:35 PM 41.0608 -82.0206 58° Northeast 180 207 4,100  Level Cleveland Center
Fri 08:59:36 PM 41.0864 -81.9661 57° Northeast 174 200 4,100  Level Cleveland Center
Fri 09:00:36 PM 41.1122 -81.9142 65° Northeast 176 203 4,100  Level Cleveland Center
Fri 09:01:43 PM 41.1358 -81.8458 49° Northeast 173 199 4,100  Level Cleveland Center
Fri 09:02:44 PM 41.1675 -81.7967 50° Northeast 175 201 4,100  Level Cleveland Center
Fri 09:03:38 PM 41.1953 -81.7531 44° Northeast 171 197 4,100 -313 Level Cleveland Center
Fri 09:04:39 PM 41.2311 -81.7069 46° Northeast 185 213 3,500 -492 Descending Cleveland Center
Fri 09:05:40 PM 41.2650 -81.6606 41° Northeast 177 204 3,100 -198 Descending Cleveland Center
Fri 09:06:40 PM 41.2986 -81.6222 21° North 155 178 3,100 -149 Level Cleveland Center
Fri 09:07:41 PM 41.3342 -81.6036 342° North 151 174 2,800 -541 Descending Cleveland Center
Fri 09:08:42 PM 41.3800 -81.6236 342° North 157 181 2,000 -496 Descending Cleveland Center
Fri 09:09:42 PM 41.4194 -81.6408 342° North 150 173 1,800 -200 Descending Cleveland Center

Login

Don't have an account? Register now (free) for customized features, flight alerts, and more!